WAMM Airport Information

Runway Information
Runway 18 Length 8693 ft width 148 ft
Elevation 270 ft Threshold ft Heading 182
Runway 36 Length 8693 ft Width 148 ft
Elevation 264 ft Threshold ft Heading 2
Airport Frequencies
Type APP Name MANADO APP Frequency 119 MHZ
Type ATIS Name ATIS Frequency 126.4 MHZ
Type INFO Name MANADO INF Frequency 891.8 MHZ
Type TWR Name RATULANGI Frequency 118.1 MHZ
Airport Navaids
Type NDB Name Manado Frequency 255 KHZ
Type VOR-DME Name Manado Frequency 114200 KHZ
Type VOR-DME Name Manado Frequency 114800 KHZ
Type NDB Name Manado Frequency 290 KHZ
Airport Weather Information & NOTAM
ADDS - METARS form results

(0325 UTC 29 June 2022)
Data provider http://aviationweather.gov/metar/data/
 
METAR text: WAMM 290300Z VRB02KT 9999 SCT020 31/24 Q1007 NOSIG
Conditions at: WAMM (MENADO/SAM RATUL, ID) observed 0300 UTC 29 June 2022
Temperature: 31.0°C (88°F)
Dewpoint: 24.0°C (75°F) [RH = 66%]
Pressure (altimeter): 29.73 inches Hg (1007.0 mb)
Winds: variable direction winds at 2 MPH (2 knots; 1.0 m/s)
Visibility: 6 or more miles (10+ km)
Ceiling: at least 12,000 feet AGL
Clouds: scattered clouds at 2000 feet AGL
Weather: no significant weather observed at this time

METAR text: WAMM 290230Z 02004KT 9999 FEW020 32/24 Q1007 NOSIG
Conditions at: WAMM (MENADO/SAM RATUL, ID) observed 0230 UTC 29 June 2022
Temperature: 32.0°C (90°F)
Dewpoint: 24.0°C (75°F) [RH = 63%]
Pressure (altimeter): 29.73 inches Hg (1007.0 mb)
Winds: from the NNE (20 degrees) at 5 MPH (4 knots; 2.1 m/s)
Visibility: 6 or more miles (10+ km)
Ceiling: at least 12,000 feet AGL
Clouds: few clouds at 2000 feet AGL
Weather: no significant weather observed at this time

Forecast for: WAMM (MENADO/SAM RATUL, ID)
Text: TAF WAMM 282300Z 2900/3006 21008KT 9999 SCT021
Forecast period: 0000 to 1000 UTC 29 June 2022
Forecast type: FROM: standard forecast or significant change
Winds: from the SSW (210 degrees) at 9 MPH (8 knots; 4.1 m/s)
Visibility: 6 or more miles (10+ km)
Ceiling: at least 12,000 feet AGL
Clouds: scattered clouds at 2100 feet AGL
Weather: no significant weather forecast for this period
Text: PROB40
Forecast period: 0500 to 0700 UTC 29 June 2022
Forecast type: TEMPORARY: The following changes expected for less than half the time period
Visibility: 3 miles (5 km)
Ceiling: at least 12,000 feet AGL
Clouds: few clouds at 1800 feet AGL
Weather: RA  (moderate rain)
Text: TEMPO 2905/2907 5000 RA FEW018CB
Forecast period: 1000 UTC 29 June 2022 to 0600 UTC 30 June 2022
Forecast type: BECOMING: Conditions expected to become as follows by 1200 UTC 29 June 2022
Winds: variable direction winds at 2 MPH (2 knots; 1.0 m/s)
Visibility: 6 or more miles (10+ km)
Ceiling: at least 12,000 feet AGL
Clouds: scattered clouds at 2100 feet AGL
Weather: no significant weather forecast for this period